Katsuragimaru — JK5335 — position and weather

sailwx.info

Track history (hours):
 
Tides and Currents Weather Stations Pressure Air Temp Water Temp Dewpoint Dewpoint Depression Visibility Wind Speed Wind Dir Waves Ship Positions

Katsuragimaru

Last reported at 2017-Dec-13 18:19 UTC. Time now 2018-Feb-22 19:18 UTC.
Position N 34°25' E 134°12'.
Warning: this ship's position is months out of date.

Length 76 m; draft 4.5 m.

Type: Cargo ship. MMSI: 431400311.

Date/timePositionNaut miles runAvg speedWind from/ knotsBaromVisibWave heightAir tempDewpointWater temp
2017-Dec-13 18:19N 34°25' E 134°12'411.9
2017-Dec-13 17:57N 34°25' E 134°18'511.8
2017-Dec-13 17:30N 34°26' E 134°24'611.9
2017-Dec-13 17:01N 34°28' E 134°31'611.7
2017-Dec-13 16:30N 34°30' E 134°37'611.6
2017-Dec-13 16:01N 34°32' E 134°44'611.1
2017-Dec-13 15:31N 34°34' E 134°50'510.1
2017-Dec-13 15:00N 34°36' E 134°56'5 9.3
2017-Dec-13 14:30N 34°37' E 135°01'4 8.9
2017-Dec-13 14:01N 34°36' E 135°06'611.3
2017-Dec-13 13:31N 34°36' E 135°13'611.9
2017-Dec-13 13:00N 34°37' E 135°20'611.2
2017-Dec-13 12:30N 34°39' E 135°26'1 2.2
2017-Dec-13 12:01N 34°39' E 135°28'0 0.0
2017-Dec-13 11:31N 34°39' E 135°28'0 0.0
2017-Dec-13 11:00N 34°39' E 135°28'0 0.0
2017-Dec-13 10:31N 34°39' E 135°28'0 0.0
2017-Dec-13 10:01N 34°39' E 135°28'0 0.0
2017-Dec-13 09:30N 34°39' E 135°28'0 0.0
2017-Dec-13 09:01N 34°39' E 135°28'0 0.0
2017-Dec-13 08:31N 34°39' E 135°28'0 0.0
2017-Dec-13 08:01N 34°39' E 135°28'0 0.0
2017-Dec-13 07:31N 34°39' E 135°28'0 0.0
2017-Dec-13 07:01N 34°39' E 135°28'0 0.0
2017-Dec-13 06:31N 34°39' E 135°28'0 0.0
2017-Dec-13 06:00N 34°39' E 135°28'0 0.0
2017-Dec-13 05:30N 34°39' E 135°28'0 0.0
2017-Dec-13 05:00N 34°39' E 135°28'0 0.0
2017-Dec-13 04:30N 34°39' E 135°28'0 0.0
2017-Dec-13 04:01N 34°39' E 135°28'0 0.0
2017-Dec-13 03:30N 34°39' E 135°28'0 0.0
2017-Dec-13 03:00N 34°39' E 135°28'0 0.0
2017-Dec-13 02:31N 34°39' E 135°28'0 0.0
2017-Dec-13 02:01N 34°39' E 135°28'0 0.0
2017-Dec-13 01:30N 34°39' E 135°28'0 0.0
2017-Dec-13 01:01N 34°39' E 135°28'0 0.0
2017-Dec-13 00:31N 34°39' E 135°28'0 0.0
2017-Dec-13 00:00N 34°39' E 135°28'0 0.0
2017-Dec-12 23:31N 34°39' E 135°28'1 1.5
2017-Dec-12 23:00N 34°39' E 135°27'1 1.5
2017-Dec-12 22:31N 34°38' E 135°27'0 0.0
2017-Dec-12 22:01N 34°38' E 135°27'0 0.1
2017-Dec-12 21:31N 34°38' E 135°27'2 4.3
2017-Dec-12 21:00N 34°39' E 135°24'3 6.3
2017-Dec-12 20:30N 34°36' E 135°25'2 4.0
2017-Dec-12 20:01N 34°34' E 135°27'0 0.0
2017-Dec-12 19:31N 34°34' E 135°27'0 0.0
2017-Dec-12 19:00N 34°34' E 135°27'0 0.0
2017-Dec-12 18:31N 34°34' E 135°27'0 0.0
2017-Dec-12 18:01N 34°34' E 135°27'0 0.0
2017-Dec-12 17:31N 34°34' E 135°27'0 0.0
2017-Dec-12 17:00N 34°34' E 135°27'0 0.0
2017-Dec-12 16:31N 34°34' E 135°27'0 0.1
2017-Dec-12 16:01N 34°34' E 135°27'0 0.9
2017-Dec-12 15:31N 34°35' E 135°27'0 0.0
2017-Dec-12 15:00N 34°35' E 135°27'0 0.0
2017-Dec-12 14:30N 34°35' E 135°27'0 0.0
2017-Dec-12 14:01N 34°35' E 135°27'0 0.0
2017-Dec-12 13:31N 34°35' E 135°27'0 0.0
2017-Dec-12 13:01N 34°35' E 135°27'0 0.0
2017-Dec-12 12:30N 34°35' E 135°27'0 0.0
2017-Dec-12 12:01N 34°35' E 135°27'0 0.0
2017-Dec-12 11:31N 34°35' E 135°27'0 0.0
2017-Dec-12 11:01N 34°35' E 135°27'0 0.0
2017-Dec-12 10:30N 34°35' E 135°27'0 0.0
2017-Dec-12 10:00N 34°35' E 135°27'0 0.0
2017-Dec-12 09:30N 34°35' E 135°27'0 0.0
2017-Dec-12 09:00N 34°35' E 135°27'0 0.0
2017-Dec-12 08:31N 34°35' E 135°27'0 0.0
2017-Dec-12 08:00N 34°35' E 135°27'0 0.0
2017-Dec-12 07:30N 34°35' E 135°27'0 0.0
2017-Dec-12 07:00N 34°35' E 135°27'0 0.0
2017-Dec-12 06:31N 34°35' E 135°27'0 0.0
2017-Dec-12 06:00N 34°35' E 135°27'0 0.0
2017-Dec-12 05:31N 34°35' E 135°27'0 0.0
2017-Dec-12 05:01N 34°35' E 135°27'0 0.0
2017-Dec-12 04:30N 34°35' E 135°27'0 0.0
2017-Dec-12 04:00N 34°35' E 135°27'0 0.0
2017-Dec-12 03:30N 34°35' E 135°27'0 0.5
2017-Dec-12 03:01N 34°35' E 135°27'4 8.2
2017-Dec-12 02:30N 34°36' E 135°22'511.0
2017-Dec-12 02:00N 34°36' E 135°16'611.5
2017-Dec-12 01:31N 34°35' E 135°09'612.0
2017-Dec-12 01:00N 34°37' E 135°02'611.8
2017-Dec-12 00:30N 34°35' E 134°55'612.0
2017-Dec-12 00:00N 34°33' E 134°48'611.3
2017-Dec-11 23:30N 34°31' E 134°42'611.1
2017-Dec-11 23:00N 34°28' E 134°35'9410.2
2017-Dec-11 13:43N 34°01' E 132°46'210.2
2017-Dec-11 13:29N 33°59' E 132°44'5 9.7
2017-Dec-11 12:57N 33°55' E 132°40'4 9.9
2017-Dec-11 12:30N 33°52' E 132°36'610.0
2017-Dec-11 11:56N 33°48' E 132°31'3710.4
2017-Dec-11 08:22N 33°35' E 131°49'3 8.1
2017-Dec-11 08:00N 33°34' E 131°47'510.4
2017-Dec-11 07:30N 33°28' E 131°46'510.7
2017-Dec-11 07:00N 33°23' E 131°43'510.2
2017-Dec-11 06:29N 33°19' E 131°40'4 0.6
2017-Dec-11 00:04N 33°16' E 131°40'0 1.7
2017-Dec-10 23:58N 33°16' E 131°40'0 0.1
2017-Dec-10 23:30N 33°16' E 131°40'3 4.9
2017-Dec-10 22:57N 33°17' E 131°37'2 4.1
2017-Dec-10 22:30N 33°15' E 131°36'0 0.0
2017-Dec-10 11:49N 33°15' E 131°36'0 0.0
2017-Dec-10 11:30N 33°15' E 131°36'0 0.0
2017-Dec-10 10:55N 33°15' E 131°36'0 0.0
2017-Dec-10 10:27N 33°15' E 131°36'0 0.0
2017-Dec-10 09:59N 33°15' E 131°36'0 0.0
2017-Dec-10 09:30N 33°15' E 131°36'0 0.0
2017-Dec-10 09:00N 33°15' E 131°36'0 0.0
2017-Dec-10 08:30N 33°15' E 131°36'0 0.0
2017-Dec-10 08:00N 33°15' E 131°36'0 0.0
2017-Dec-10 07:27N 33°15' E 131°36'0 0.0
2017-Dec-10 04:42N 33°15' E 131°36'0 0.0
2017-Dec-09 23:27N 33°15' E 131°36'2 4.7
2017-Dec-09 23:00N 33°17' E 131°37'611.8
2017-Dec-09 22:30N 33°22' E 131°42'1 1.4
2017-Dec-09 22:00N 33°22' E 131°42'0 0.0
2017-Dec-09 21:31N 33°22' E 131°42'0 0.0
2017-Dec-09 21:00N 33°22' E 131°42'0 0.0
2017-Dec-09 20:30N 33°22' E 131°42'0 0.1
2017-Dec-09 20:00N 33°22' E 131°42'0 0.0
2017-Dec-09 19:30N 33°22' E 131°42'0 0.1
2017-Dec-09 19:00N 33°22' E 131°42'0 0.0
2017-Dec-09 18:30N 33°22' E 131°42'0 0.0
2017-Dec-09 18:00N 33°22' E 131°42'0 0.0
2017-Dec-09 17:30N 33°22' E 131°42'0 0.0
2017-Dec-09 16:59N 33°22' E 131°42'0 0.1
2017-Dec-09 16:30N 33°22' E 131°42'0 0.1
2017-Dec-09 16:00N 33°22' E 131°42'0 0.0
2017-Dec-09 15:30N 33°22' E 131°42'0 0.1
2017-Dec-09 15:00N 33°22' E 131°42'0 0.1
2017-Dec-09 14:30N 33°22' E 131°42'0 0.1
2017-Dec-09 14:00N 33°22' E 131°42'0 0.1
2017-Dec-09 13:30N 33°22' E 131°42'0 0.0
2017-Dec-09 13:00N 33°22' E 131°42'0 0.1
2017-Dec-09 12:30N 33°22' E 131°42'0 0.0
2017-Dec-09 12:00N 33°22' E 131°42'0 0.1
2017-Dec-09 11:30N 33°22' E 131°42'0 0.0
2017-Dec-09 11:00N 33°22' E 131°42'2 4.4
2017-Dec-09 10:30N 33°23' E 131°45'612.3
2017-Dec-09 10:00N 33°26' E 131°51'612.5
2017-Dec-09 09:30N 33°29' E 131°58'3612.6
2017-Dec-09 06:37N 33°51' E 132°33'212.6
2017-Dec-09 06:28N 33°52' E 132°34'511.7
2017-Dec-09 06:01N 33°56' E 132°39'510.8
2017-Dec-09 05:31N 33°59' E 132°44'8110.1
2017-Dec-08 21:27N 34°24' E 134°17'610.5
2017-Dec-08 20:55N 34°26' E 134°24'912.0
2017-Dec-08 20:11N 34°32' E 134°31'211.8
2017-Dec-08 20:00N 34°34' E 134°33'611.6
2017-Dec-08 19:30N 34°38' E 134°38'612.5
2017-Dec-08 19:00N 34°44' E 134°38'2 4.8
2017-Dec-08 18:30N 34°47' E 134°38'0 0.0
2017-Dec-08 17:58N 34°47' E 134°38'0 0.0
2017-Dec-08 17:30N 34°47' E 134°38'0 0.0
2017-Dec-08 17:00N 34°47' E 134°38'0 0.0
2017-Dec-08 15:08N 34°47' E 134°38'0 0.0
2017-Dec-08 14:52N 34°47' E 134°38'0 0.0
2017-Dec-08 13:07N 34°47' E 134°38'0 0.0
2017-Dec-08 12:49N 34°47' E 134°38'0 0.7
2017-Dec-08 12:26N 34°47' E 134°38'0 0.2
2017-Dec-08 12:00N 34°47' E 134°38'0 0.0
2017-Dec-08 11:30N 34°47' E 134°38'0 0.0
2017-Dec-08 11:00N 34°47' E 134°38'0 0.0
2017-Dec-08 10:30N 34°47' E 134°38'0 0.0
2017-Dec-08 10:00N 34°47' E 134°38'0 0.0
2017-Dec-08 09:29N 34°47' E 134°38'0 0.0
2017-Dec-08 09:00N 34°47' E 134°38'0 0.0
2017-Dec-08 08:28N 34°47' E 134°38'0 0.0
2017-Dec-08 08:00N 34°47' E 134°38'0 0.0
2017-Dec-08 07:30N 34°47' E 134°38'0 0.0
2017-Dec-08 06:52N 34°47' E 134°38'0 0.0
2017-Dec-08 06:29N 34°47' E 134°38'0 0.0
2017-Dec-08 06:00N 34°47' E 134°38'0 0.0
2017-Dec-08 05:29N 34°47' E 134°38'0 0.0
2017-Dec-08 05:00N 34°47' E 134°38'0 0.0
2017-Dec-08 04:30N 34°47' E 134°38'0 0.0
2017-Dec-08 04:00N 34°47' E 134°38'0 0.0
2017-Dec-08 03:30N 34°47' E 134°38'0 0.0
2017-Dec-08 02:57N 34°47' E 134°38'0 0.0
2017-Dec-08 02:30N 34°47' E 134°38'0 0.0
2017-Dec-08 01:59N 34°47' E 134°38'0 0.1
2017-Dec-08 01:29N 34°47' E 134°38'2 1.8
2017-Dec-08 00:28N 34°45' E 134°38'0 0.0
2017-Dec-07 23:56N 34°45' E 134°38'0 0.0
2017-Dec-07 23:28N 34°45' E 134°38'0 0.0
2017-Dec-07 22:55N 34°45' E 134°38'0 0.1
2017-Dec-07 22:25N 34°45' E 134°38'0 0.0
2017-Dec-07 21:57N 34°45' E 134°38'0 0.0
2017-Dec-07 21:23N 34°45' E 134°38'0 0.0
2017-Dec-07 21:00N 34°45' E 134°38'0 0.0
2017-Dec-07 20:30N 34°45' E 134°38'0 0.0
2017-Dec-07 19:59N 34°45' E 134°38'0 0.0
2017-Dec-07 19:30N 34°45' E 134°38'0 0.0
2017-Dec-07 19:00N 34°45' E 134°38'0 0.0
2017-Dec-07 17:51N 34°45' E 134°38'0 0.0
2017-Dec-07 17:30N 34°45' E 134°38'0 0.0
2017-Dec-07 16:56N 34°45' E 134°38'0 0.1
2017-Dec-07 16:30N 34°45' E 134°38'0 0.5
2017-Dec-07 16:00N 34°45' E 134°38'510.0
2017-Dec-07 15:30N 34°42' E 134°43'510.2
2017-Dec-07 15:00N 34°40' E 134°49'611.5
2017-Dec-07 14:31N 34°37' E 134°55'611.9
2017-Dec-07 14:00N 34°37' E 135°02'5 9.8
2017-Dec-07 13:30N 34°32' E 135°04'611.7
2017-Dec-07 13:00N 34°27' E 135°03'611.3
2017-Dec-07 12:30N 34°21' E 135°01'611.2
2017-Dec-07 12:00N 34°16' E 134°59'510.8
2017-Dec-07 11:30N 34°10' E 134°60'611.1
2017-Dec-07 11:00N 34°05' E 135°00'611.2
2017-Dec-07 10:30N 33°59' E 135°01'610.9
2017-Dec-07 09:58N 33°54' E 135°02'85 8.2
2017-Dec-06 23:37N 34°06' E 136°43'111.1
2017-Dec-06 23:30N 34°07' E 136°45'  
2017-Dec-04 08:32N 33°58' E 134°56'011.1
2017-Dec-04 08:30N 33°58' E 134°56'511.2
2017-Dec-04 08:00N 34°02' E 134°51'711.2
2017-Dec-04 07:23N 34°07' E 134°45'711.3
2017-Dec-04 06:47N 34°13' E 134°40'412.0
2017-Dec-04 06:27N 34°16' E 134°37'511.4
2017-Dec-04 06:00N 34°18' E 134°32'611.6
2017-Dec-04 05:29N 34°20' E 134°25'8410.7
2017-Dec-03 21:37N 34°01' E 132°45'112.0
2017-Dec-03 21:30N 34°00' E 132°45'611.4
2017-Dec-03 21:00N 33°56' E 132°41'611.1
2017-Dec-03 20:30N 33°53' E 132°35'1110.8
2017-Dec-03 19:31N 33°50' E 132°23'310.8
2017-Dec-03 19:11N 33°50' E 132°18'  
Track history (hours):
 
Tides and Currents Weather Stations Pressure Air Temp Water Temp Dewpoint Dewpoint Depression Visibility Wind Speed Wind Dir Waves Ship Positions

Katsuragimaru

Last reported at 2017-Dec-13 18:19 UTC. Time now 2018-Feb-22 19:18 UTC.
Position N 34°25' E 134°12'.
Warning: this ship's position is months out of date.

Length 76 m; draft 4.5 m.

Type: Cargo ship. MMSI: 431400311.

Date/timePositionNaut miles runAvg speedWind from/ knotsBaromVisibWave heightAir tempDewpointWater temp
2017-Dec-13 18:19N 34°25' E 134°12'411.9
2017-Dec-13 17:57N 34°25' E 134°18'511.8
2017-Dec-13 17:30N 34°26' E 134°24'611.9
2017-Dec-13 17:01N 34°28' E 134°31'611.7
2017-Dec-13 16:30N 34°30' E 134°37'611.6
2017-Dec-13 16:01N 34°32' E 134°44'611.1
2017-Dec-13 15:31N 34°34' E 134°50'510.1
2017-Dec-13 15:00N 34°36' E 134°56'5 9.3
2017-Dec-13 14:30N 34°37' E 135°01'4 8.9
2017-Dec-13 14:01N 34°36' E 135°06'611.3
2017-Dec-13 13:31N 34°36' E 135°13'611.9
2017-Dec-13 13:00N 34°37' E 135°20'611.2
2017-Dec-13 12:30N 34°39' E 135°26'1 2.2
2017-Dec-13 12:01N 34°39' E 135°28'0 0.0
2017-Dec-13 11:31N 34°39' E 135°28'0 0.0
2017-Dec-13 11:00N 34°39' E 135°28'0 0.0
2017-Dec-13 10:31N 34°39' E 135°28'0 0.0
2017-Dec-13 10:01N 34°39' E 135°28'0 0.0
2017-Dec-13 09:30N 34°39' E 135°28'0 0.0
2017-Dec-13 09:01N 34°39' E 135°28'0 0.0
2017-Dec-13 08:31N 34°39' E 135°28'0 0.0
2017-Dec-13 08:01N 34°39' E 135°28'0 0.0
2017-Dec-13 07:31N 34°39' E 135°28'0 0.0
2017-Dec-13 07:01N 34°39' E 135°28'0 0.0
2017-Dec-13 06:31N 34°39' E 135°28'0 0.0
2017-Dec-13 06:00N 34°39' E 135°28'0 0.0
2017-Dec-13 05:30N 34°39' E 135°28'0 0.0
2017-Dec-13 05:00N 34°39' E 135°28'0 0.0
2017-Dec-13 04:30N 34°39' E 135°28'0 0.0
2017-Dec-13 04:01N 34°39' E 135°28'0 0.0
2017-Dec-13 03:30N 34°39' E 135°28'0 0.0
2017-Dec-13 03:00N 34°39' E 135°28'0 0.0
2017-Dec-13 02:31N 34°39' E 135°28'0 0.0
2017-Dec-13 02:01N 34°39' E 135°28'0 0.0
2017-Dec-13 01:30N 34°39' E 135°28'0 0.0
2017-Dec-13 01:01N 34°39' E 135°28'0 0.0
2017-Dec-13 00:31N 34°39' E 135°28'0 0.0
2017-Dec-13 00:00N 34°39' E 135°28'0 0.0
2017-Dec-12 23:31N 34°39' E 135°28'1 1.5
2017-Dec-12 23:00N 34°39' E 135°27'1 1.5
2017-Dec-12 22:31N 34°38' E 135°27'0 0.0
2017-Dec-12 22:01N 34°38' E 135°27'0 0.1
2017-Dec-12 21:31N 34°38' E 135°27'2 4.3
2017-Dec-12 21:00N 34°39' E 135°24'3 6.3
2017-Dec-12 20:30N 34°36' E 135°25'2 4.0
2017-Dec-12 20:01N 34°34' E 135°27'0 0.0
2017-Dec-12 19:31N 34°34' E 135°27'0 0.0
2017-Dec-12 19:00N 34°34' E 135°27'0 0.0
2017-Dec-12 18:31N 34°34' E 135°27'0 0.0
2017-Dec-12 18:01N 34°34' E 135°27'0 0.0
2017-Dec-12 17:31N 34°34' E 135°27'0 0.0
2017-Dec-12 17:00N 34°34' E 135°27'0 0.0
2017-Dec-12 16:31N 34°34' E 135°27'0 0.1
2017-Dec-12 16:01N 34°34' E 135°27'0 0.9
2017-Dec-12 15:31N 34°35' E 135°27'0 0.0
2017-Dec-12 15:00N 34°35' E 135°27'0 0.0
2017-Dec-12 14:30N 34°35' E 135°27'0 0.0
2017-Dec-12 14:01N 34°35' E 135°27'0 0.0
2017-Dec-12 13:31N 34°35' E 135°27'0 0.0
2017-Dec-12 13:01N 34°35' E 135°27'0 0.0
2017-Dec-12 12:30N 34°35' E 135°27'0 0.0
2017-Dec-12 12:01N 34°35' E 135°27'0 0.0
2017-Dec-12 11:31N 34°35' E 135°27'0 0.0
2017-Dec-12 11:01N 34°35' E 135°27'0 0.0
2017-Dec-12 10:30N 34°35' E 135°27'0 0.0
2017-Dec-12 10:00N 34°35' E 135°27'0 0.0
2017-Dec-12 09:30N 34°35' E 135°27'0 0.0
2017-Dec-12 09:00N 34°35' E 135°27'0 0.0
2017-Dec-12 08:31N 34°35' E 135°27'0 0.0
2017-Dec-12 08:00N 34°35' E 135°27'0 0.0
2017-Dec-12 07:30N 34°35' E 135°27'0 0.0
2017-Dec-12 07:00N 34°35' E 135°27'0 0.0
2017-Dec-12 06:31N 34°35' E 135°27'0 0.0
2017-Dec-12 06:00N 34°35' E 135°27'0 0.0
2017-Dec-12 05:31N 34°35' E 135°27'0 0.0
2017-Dec-12 05:01N 34°35' E 135°27'0 0.0
2017-Dec-12 04:30N 34°35' E 135°27'0 0.0
2017-Dec-12 04:00N 34°35' E 135°27'0 0.0
2017-Dec-12 03:30N 34°35' E 135°27'0 0.5
2017-Dec-12 03:01N 34°35' E 135°27'4 8.2
2017-Dec-12 02:30N 34°36' E 135°22'511.0
2017-Dec-12 02:00N 34°36' E 135°16'611.5
2017-Dec-12 01:31N 34°35' E 135°09'612.0
2017-Dec-12 01:00N 34°37' E 135°02'611.8
2017-Dec-12 00:30N 34°35' E 134°55'612.0
2017-Dec-12 00:00N 34°33' E 134°48'611.3
2017-Dec-11 23:30N 34°31' E 134°42'611.1
2017-Dec-11 23:00N 34°28' E 134°35'9410.2
2017-Dec-11 13:43N 34°01' E 132°46'210.2
2017-Dec-11 13:29N 33°59' E 132°44'5 9.7
2017-Dec-11 12:57N 33°55' E 132°40'4 9.9
2017-Dec-11 12:30N 33°52' E 132°36'610.0
2017-Dec-11 11:56N 33°48' E 132°31'3710.4
2017-Dec-11 08:22N 33°35' E 131°49'3 8.1
2017-Dec-11 08:00N 33°34' E 131°47'510.4
2017-Dec-11 07:30N 33°28' E 131°46'510.7
2017-Dec-11 07:00N 33°23' E 131°43'510.2
2017-Dec-11 06:29N 33°19' E 131°40'4 0.6
2017-Dec-11 00:04N 33°16' E 131°40'0 1.7
2017-Dec-10 23:58N 33°16' E 131°40'0 0.1
2017-Dec-10 23:30N 33°16' E 131°40'3 4.9
2017-Dec-10 22:57N 33°17' E 131°37'2 4.1
2017-Dec-10 22:30N 33°15' E 131°36'0 0.0
2017-Dec-10 11:49N 33°15' E 131°36'0 0.0
2017-Dec-10 11:30N 33°15' E 131°36'0 0.0
2017-Dec-10 10:55N 33°15' E 131°36'0 0.0
2017-Dec-10 10:27N 33°15' E 131°36'0 0.0
2017-Dec-10 09:59N 33°15' E 131°36'0 0.0
2017-Dec-10 09:30N 33°15' E 131°36'0 0.0
2017-Dec-10 09:00N 33°15' E 131°36'0 0.0
2017-Dec-10 08:30N 33°15' E 131°36'0 0.0
2017-Dec-10 08:00N 33°15' E 131°36'0 0.0
2017-Dec-10 07:27N 33°15' E 131°36'0 0.0
2017-Dec-10 04:42N 33°15' E 131°36'0 0.0
2017-Dec-09 23:27N 33°15' E 131°36'2 4.7
2017-Dec-09 23:00N 33°17' E 131°37'611.8
2017-Dec-09 22:30N 33°22' E 131°42'1 1.4
2017-Dec-09 22:00N 33°22' E 131°42'0 0.0
2017-Dec-09 21:31N 33°22' E 131°42'0 0.0
2017-Dec-09 21:00N 33°22' E 131°42'0 0.0
2017-Dec-09 20:30N 33°22' E 131°42'0 0.1
2017-Dec-09 20:00N 33°22' E 131°42'0 0.0
2017-Dec-09 19:30N 33°22' E 131°42'0 0.1
2017-Dec-09 19:00N 33°22' E 131°42'0 0.0
2017-Dec-09 18:30N 33°22' E 131°42'0 0.0
2017-Dec-09 18:00N 33°22' E 131°42'0 0.0
2017-Dec-09 17:30N 33°22' E 131°42'0 0.0
2017-Dec-09 16:59N 33°22' E 131°42'0 0.1
2017-Dec-09 16:30N 33°22' E 131°42'0 0.1
2017-Dec-09 16:00N 33°22' E 131°42'0 0.0
2017-Dec-09 15:30N 33°22' E 131°42'0 0.1
2017-Dec-09 15:00N 33°22' E 131°42'0 0.1
2017-Dec-09 14:30N 33°22' E 131°42'0 0.1
2017-Dec-09 14:00N 33°22' E 131°42'0 0.1
2017-Dec-09 13:30N 33°22' E 131°42'0 0.0
2017-Dec-09 13:00N 33°22' E 131°42'0 0.1
2017-Dec-09 12:30N 33°22' E 131°42'0 0.0
2017-Dec-09 12:00N 33°22' E 131°42'0 0.1
2017-Dec-09 11:30N 33°22' E 131°42'0 0.0
2017-Dec-09 11:00N 33°22' E 131°42'2 4.4
2017-Dec-09 10:30N 33°23' E 131°45'612.3
2017-Dec-09 10:00N 33°26' E 131°51'612.5
2017-Dec-09 09:30N 33°29' E 131°58'3612.6
2017-Dec-09 06:37N 33°51' E 132°33'212.6
2017-Dec-09 06:28N 33°52' E 132°34'511.7
2017-Dec-09 06:01N 33°56' E 132°39'510.8
2017-Dec-09 05:31N 33°59' E 132°44'8110.1
2017-Dec-08 21:27N 34°24' E 134°17'610.5
2017-Dec-08 20:55N 34°26' E 134°24'912.0
2017-Dec-08 20:11N 34°32' E 134°31'211.8
2017-Dec-08 20:00N 34°34' E 134°33'611.6
2017-Dec-08 19:30N 34°38' E 134°38'612.5
2017-Dec-08 19:00N 34°44' E 134°38'2 4.8
2017-Dec-08 18:30N 34°47' E 134°38'0 0.0
2017-Dec-08 17:58N 34°47' E 134°38'0 0.0
2017-Dec-08 17:30N 34°47' E 134°38'0 0.0
2017-Dec-08 17:00N 34°47' E 134°38'0 0.0
2017-Dec-08 15:08N 34°47' E 134°38'0 0.0
2017-Dec-08 14:52N 34°47' E 134°38'0 0.0
2017-Dec-08 13:07N 34°47' E 134°38'0 0.0
2017-Dec-08 12:49N 34°47' E 134°38'0 0.7
2017-Dec-08 12:26N 34°47' E 134°38'0 0.2
2017-Dec-08 12:00N 34°47' E 134°38'0 0.0
2017-Dec-08 11:30N 34°47' E 134°38'0 0.0
2017-Dec-08 11:00N 34°47' E 134°38'0 0.0
2017-Dec-08 10:30N 34°47' E 134°38'0 0.0
2017-Dec-08 10:00N 34°47' E 134°38'0 0.0
2017-Dec-08 09:29N 34°47' E 134°38'0 0.0
2017-Dec-08 09:00N 34°47' E 134°38'0 0.0
2017-Dec-08 08:28N 34°47' E 134°38'0 0.0
2017-Dec-08 08:00N 34°47' E 134°38'0 0.0
2017-Dec-08 07:30N 34°47' E 134°38'0 0.0
2017-Dec-08 06:52N 34°47' E 134°38'0 0.0
2017-Dec-08 06:29N 34°47' E 134°38'0 0.0
2017-Dec-08 06:00N 34°47' E 134°38'0 0.0
2017-Dec-08 05:29N 34°47' E 134°38'0 0.0
2017-Dec-08 05:00N 34°47' E 134°38'0 0.0
2017-Dec-08 04:30N 34°47' E 134°38'0 0.0
2017-Dec-08 04:00N 34°47' E 134°38'0 0.0
2017-Dec-08 03:30N 34°47' E 134°38'0 0.0
2017-Dec-08 02:57N 34°47' E 134°38'0 0.0
2017-Dec-08 02:30N 34°47' E 134°38'0 0.0
2017-Dec-08 01:59N 34°47' E 134°38'0 0.1
2017-Dec-08 01:29N 34°47' E 134°38'2 1.8
2017-Dec-08 00:28N 34°45' E 134°38'0 0.0
2017-Dec-07 23:56N 34°45' E 134°38'0 0.0
2017-Dec-07 23:28N 34°45' E 134°38'0 0.0
2017-Dec-07 22:55N 34°45' E 134°38'0 0.1
2017-Dec-07 22:25N 34°45' E 134°38'0 0.0
2017-Dec-07 21:57N 34°45' E 134°38'0 0.0
2017-Dec-07 21:23N 34°45' E 134°38'0 0.0
2017-Dec-07 21:00N 34°45' E 134°38'0 0.0
2017-Dec-07 20:30N 34°45' E 134°38'0 0.0
2017-Dec-07 19:59N 34°45' E 134°38'0 0.0
2017-Dec-07 19:30N 34°45' E 134°38'0 0.0
2017-Dec-07 19:00N 34°45' E 134°38'0 0.0
2017-Dec-07 17:51N 34°45' E 134°38'0 0.0
2017-Dec-07 17:30N 34°45' E 134°38'0 0.0
2017-Dec-07 16:56N 34°45' E 134°38'0 0.1
2017-Dec-07 16:30N 34°45' E 134°38'0 0.5
2017-Dec-07 16:00N 34°45' E 134°38'510.0
2017-Dec-07 15:30N 34°42' E 134°43'510.2
2017-Dec-07 15:00N 34°40' E 134°49'611.5
2017-Dec-07 14:31N 34°37' E 134°55'611.9
2017-Dec-07 14:00N 34°37' E 135°02'5 9.8
2017-Dec-07 13:30N 34°32' E 135°04'611.7
2017-Dec-07 13:00N 34°27' E 135°03'611.3
2017-Dec-07 12:30N 34°21' E 135°01'611.2
2017-Dec-07 12:00N 34°16' E 134°59'510.8
2017-Dec-07 11:30N 34°10' E 134°60'611.1
2017-Dec-07 11:00N 34°05' E 135°00'611.2
2017-Dec-07 10:30N 33°59' E 135°01'610.9
2017-Dec-07 09:58N 33°54' E 135°02'85 8.2
2017-Dec-06 23:37N 34°06' E 136°43'111.1
2017-Dec-06 23:30N 34°07' E 136°45'  
2017-Dec-04 08:32N 33°58' E 134°56'011.1
2017-Dec-04 08:30N 33°58' E 134°56'511.2
2017-Dec-04 08:00N 34°02' E 134°51'711.2
2017-Dec-04 07:23N 34°07' E 134°45'711.3
2017-Dec-04 06:47N 34°13' E 134°40'412.0
2017-Dec-04 06:27N 34°16' E 134°37'511.4
2017-Dec-04 06:00N 34°18' E 134°32'611.6
2017-Dec-04 05:29N 34°20' E 134°25'8410.7
2017-Dec-03 21:37N 34°01' E 132°45'112.0
2017-Dec-03 21:30N 34°00' E 132°45'611.4
2017-Dec-03 21:00N 33°56' E 132°41'611.1
2017-Dec-03 20:30N 33°53' E 132°35'1110.8
2017-Dec-03 19:31N 33°50' E 132°23'310.8
2017-Dec-03 19:11N 33°50' E 132°18'  

Dump ship's entire track history